sensor_id;sensor_type;location;lat;lon;timestamp;pressure;altitude;pressure_sealevel;temperature;humidity
70781;BME280;59514;48.810;2.134;2022-10-30T00:00:36;100392.25;;;16.64;74.37
70781;BME280;59514;48.810;2.134;2022-10-30T00:03:02;100393.38;;;16.68;75.37
70781;BME280;59514;48.810;2.134;2022-10-30T00:05:27;100393.59;;;16.61;75.02
70781;BME280;59514;48.810;2.134;2022-10-30T00:07:56;100398.22;;;16.66;75.24
70781;BME280;59514;48.810;2.134;2022-10-30T00:10:22;100398.25;;;16.71;75.39
70781;BME280;59514;48.810;2.134;2022-10-30T00:12:48;100399.84;;;16.67;74.83
70781;BME280;59514;48.810;2.134;2022-10-30T00:15:13;100396.34;;;16.71;74.79
70781;BME280;59514;48.810;2.134;2022-10-30T00:17:38;100396.59;;;16.65;75.46
70781;BME280;59514;48.810;2.134;2022-10-30T00:20:04;100389.53;;;16.64;75.76
70781;BME280;59514;48.810;2.134;2022-10-30T00:22:30;100387.38;;;16.66;75.79
70781;BME280;59514;48.810;2.134;2022-10-30T00:24:55;100391.97;;;16.60;75.48
70781;BME280;59514;48.810;2.134;2022-10-30T00:27:21;100382.75;;;16.56;75.23
70781;BME280;59514;48.810;2.134;2022-10-30T00:29:46;100381.69;;;16.62;76.39
70781;BME280;59514;48.810;2.134;2022-10-30T00:32:12;100374.94;;;16.75;75.94
70781;BME280;59514;48.810;2.134;2022-10-30T00:34:37;100381.75;;;16.77;75.32
70781;BME280;59514;48.810;2.134;2022-10-30T00:37:03;100379.81;;;16.68;75.46
70781;BME280;59514;48.810;2.134;2022-10-30T00:39:28;100370.00;;;16.62;75.32
70781;BME280;59514;48.810;2.134;2022-10-30T00:41:53;100382.47;;;16.58;76.00
70781;BME280;59514;48.810;2.134;2022-10-30T00:44:43;100381.91;;;16.56;75.85
70781;BME280;59514;48.810;2.134;2022-10-30T00:47:19;100385.75;;;16.65;75.37
70781;BME280;59514;48.810;2.134;2022-10-30T00:52:41;100390.06;;;16.61;75.96
70781;BME280;59514;48.810;2.134;2022-10-30T00:55:13;100387.06;;;16.52;76.62
70781;BME280;59514;48.810;2.134;2022-10-30T00:57:40;100385.13;;;16.53;76.38
70781;BME280;59514;48.810;2.134;2022-10-30T01:00:07;100386.50;;;16.50;76.43
70781;BME280;59514;48.810;2.134;2022-10-30T01:02:32;100385.69;;;16.50;76.62
70781;BME280;59514;48.810;2.134;2022-10-30T01:04:58;100387.06;;;16.57;76.07
70781;BME280;59514;48.810;2.134;2022-10-30T01:07:24;100377.00;;;16.53;76.46
70781;BME280;59514;48.810;2.134;2022-10-30T01:09:49;100386.78;;;16.59;76.36
70781;BME280;59514;48.810;2.134;2022-10-30T01:12:15;100373.50;;;16.57;76.63
70781;BME280;59514;48.810;2.134;2022-10-30T01:14:44;100375.41;;;16.57;76.02
70781;BME280;59514;48.810;2.134;2022-10-30T01:17:53;100380.53;;;16.53;76.28
70781;BME280;59514;48.810;2.134;2022-10-30T01:26:06;100398.97;;;16.14;78.06
70781;BME280;59514;48.810;2.134;2022-10-30T01:31:43;100391.97;;;16.18;78.13
70781;BME280;59514;48.810;2.134;2022-10-30T01:34:19;100392.53;;;16.20;77.16
70781;BME280;59514;48.810;2.134;2022-10-30T01:36:49;100383.78;;;16.13;78.78
70781;BME280;59514;48.810;2.134;2022-10-30T01:39:23;100393.00;;;16.12;79.15
70781;BME280;59514;48.810;2.134;2022-10-30T01:41:49;100396.22;;;16.09;78.04
70781;BME280;59514;48.810;2.134;2022-10-30T01:44:18;100391.00;;;15.98;78.44
70781;BME280;59514;48.810;2.134;2022-10-30T01:51:52;100381.31;;;16.07;78.85
70781;BME280;59514;48.810;2.134;2022-10-30T01:54:37;100374.00;;;16.07;78.71
70781;BME280;59514;48.810;2.134;2022-10-30T01:57:11;100365.88;;;16.07;79.06
70781;BME280;59514;48.810;2.134;2022-10-30T01:59:59;100372.13;;;16.08;78.53
70781;BME280;59514;48.810;2.134;2022-10-30T02:02:26;100368.06;;;16.10;78.38
70781;BME280;59514;48.810;2.134;2022-10-30T02:04:51;100378.31;;;16.03;78.34
70781;BME280;59514;48.810;2.134;2022-10-30T02:07:17;100375.22;;;15.85;79.38
70781;BME280;59514;48.810;2.134;2022-10-30T02:09:42;100368.72;;;15.91;79.03
70781;BME280;59514;48.810;2.134;2022-10-30T02:12:08;100370.47;;;16.07;79.23
70781;BME280;59514;48.810;2.134;2022-10-30T02:14:42;100364.50;;;16.05;78.72
70781;BME280;59514;48.810;2.134;2022-10-30T02:17:09;100373.66;;;15.99;78.55
70781;BME280;59514;48.810;2.134;2022-10-30T02:19:36;100372.78;;;15.88;78.93
70781;BME280;59514;48.810;2.134;2022-10-30T02:22:01;100370.09;;;15.88;78.65
70781;BME280;59514;48.810;2.134;2022-10-30T02:24:28;100372.22;;;15.86;79.53
70781;BME280;59514;48.810;2.134;2022-10-30T02:26:53;100364.22;;;16.01;79.41
70781;BME280;59514;48.810;2.134;2022-10-30T02:29:19;100370.94;;;15.99;78.73
70781;BME280;59514;48.810;2.134;2022-10-30T02:31:46;100372.78;;;15.88;78.80
70781;BME280;59514;48.810;2.134;2022-10-30T02:34:11;100364.13;;;15.91;79.10
70781;BME280;59514;48.810;2.134;2022-10-30T02:36:37;100359.91;;;16.05;78.51
70781;BME280;59514;48.810;2.134;2022-10-30T02:39:02;100357.75;;;16.07;77.69
70781;BME280;59514;48.810;2.134;2022-10-30T02:41:28;100354.53;;;16.10;79.00
70781;BME280;59514;48.810;2.134;2022-10-30T02:43:53;100356.13;;;16.06;77.97
70781;BME280;59514;48.810;2.134;2022-10-30T02:46:20;100356.84;;;15.97;78.92
70781;BME280;59514;48.810;2.134;2022-10-30T02:48:45;100361.72;;;15.95;78.54
70781;BME280;59514;48.810;2.134;2022-10-30T02:51:11;100367.41;;;15.93;78.71
70781;BME280;59514;48.810;2.134;2022-10-30T02:53:37;100357.69;;;15.97;78.82
70781;BME280;59514;48.810;2.134;2022-10-30T02:56:04;100362.59;;;16.00;78.31
70781;BME280;59514;48.810;2.134;2022-10-30T02:58:29;100357.47;;;16.09;79.11
70781;BME280;59514;48.810;2.134;2022-10-30T03:00:55;100356.44;;;16.15;78.00
70781;BME280;59514;48.810;2.134;2022-10-30T03:03:20;100356.97;;;16.12;78.36
70781;BME280;59514;48.810;2.134;2022-10-30T03:05:45;100352.31;;;16.02;78.36
70781;BME280;59514;48.810;2.134;2022-10-30T03:08:11;100351.72;;;15.95;78.48
70781;BME280;59514;48.810;2.134;2022-10-30T03:10:36;100351.16;;;15.93;78.94
70781;BME280;59514;48.810;2.134;2022-10-30T03:13:01;100353.84;;;15.88;78.38
70781;BME280;59514;48.810;2.134;2022-10-30T03:15:27;100343.22;;;15.82;79.53
70781;BME280;59514;48.810;2.134;2022-10-30T03:17:52;100339.19;;;15.84;79.24
70781;BME280;59514;48.810;2.134;2022-10-30T03:20:18;100344.53;;;15.79;78.92
70781;BME280;59514;48.810;2.134;2022-10-30T03:22:44;100337.59;;;15.88;79.24
70781;BME280;59514;48.810;2.134;2022-10-30T03:25:09;100333.28;;;15.92;78.69
70781;BME280;59514;48.810;2.134;2022-10-30T03:27:34;100333.78;;;15.89;79.05
70781;BME280;59514;48.810;2.134;2022-10-30T03:30:00;100336.47;;;15.84;78.88
70781;BME280;59514;48.810;2.134;2022-10-30T03:32:25;100330.25;;;15.84;79.06
70781;BME280;59514;48.810;2.134;2022-10-30T03:34:50;100325.66;;;15.84;79.32
70781;BME280;59514;48.810;2.134;2022-10-30T03:37:18;100330.78;;;15.86;78.86
70781;BME280;59514;48.810;2.134;2022-10-30T03:39:44;100319.69;;;15.87;79.45
70781;BME280;59514;48.810;2.134;2022-10-30T03:42:09;100321.06;;;15.90;78.52
70781;BME280;59514;48.810;2.134;2022-10-30T03:44:34;100319.13;;;15.80;79.02
70781;BME280;59514;48.810;2.134;2022-10-30T03:47:00;100311.78;;;15.76;78.82
70781;BME280;59514;48.810;2.134;2022-10-30T03:49:25;100317.78;;;15.83;79.16
70781;BME280;59514;48.810;2.134;2022-10-30T03:51:50;100303.50;;;15.92;79.33
70781;BME280;59514;48.810;2.134;2022-10-30T03:54:15;100307.31;;;15.96;78.42
70781;BME280;59514;48.810;2.134;2022-10-30T03:56:43;100312.66;;;15.86;79.11
70781;BME280;59514;48.810;2.134;2022-10-30T03:59:09;100318.38;;;15.90;78.53
70781;BME280;59514;48.810;2.134;2022-10-30T04:01:34;100308.88;;;15.87;78.41
70781;BME280;59514;48.810;2.134;2022-10-30T04:03:59;100311.00;;;15.85;79.11
70781;BME280;59514;48.810;2.134;2022-10-30T04:06:25;100309.69;;;15.88;78.94
70781;BME280;59514;48.810;2.134;2022-10-30T04:08:50;100310.81;;;15.92;79.36
70781;BME280;59514;48.810;2.134;2022-10-30T04:11:15;100303.72;;;15.86;79.02
70781;BME280;59514;48.810;2.134;2022-10-30T04:13:40;100305.84;;;15.79;79.14
70781;BME280;59514;48.810;2.134;2022-10-30T04:16:06;100314.69;;;15.69;79.37
70781;BME280;59514;48.810;2.134;2022-10-30T04:18:31;100298.22;;;15.76;79.74
70781;BME280;59514;48.810;2.134;2022-10-30T04:20:58;100295.81;;;15.79;79.47
70781;BME280;59514;48.810;2.134;2022-10-30T04:23:24;100285.81;;;15.80;79.35
70781;BME280;59514;48.810;2.134;2022-10-30T04:25:49;100300.19;;;15.85;79.30
70781;BME280;59514;48.810;2.134;2022-10-30T04:28:14;100304.25;;;15.83;79.34
70781;BME280;59514;48.810;2.134;2022-10-30T04:30:40;100303.16;;;15.84;79.62
70781;BME280;59514;48.810;2.134;2022-10-30T04:33:07;100294.72;;;15.75;79.90
70781;BME280;59514;48.810;2.134;2022-10-30T04:35:35;100293.09;;;15.74;79.93
70781;BME280;59514;48.810;2.134;2022-10-30T04:38:03;100286.56;;;15.70;79.89
70781;BME280;59514;48.810;2.134;2022-10-30T04:40:32;100288.19;;;15.71;80.11
70781;BME280;59514;48.810;2.134;2022-10-30T04:42:58;100277.41;;;15.76;79.24
70781;BME280;59514;48.810;2.134;2022-10-30T04:45:24;100288.22;;;15.76;80.37
70781;BME280;59514;48.810;2.134;2022-10-30T04:47:50;100284.97;;;15.74;79.76
70781;BME280;59514;48.810;2.134;2022-10-30T04:50:16;100287.94;;;15.73;79.83
70781;BME280;59514;48.810;2.134;2022-10-30T04:52:41;100282.13;;;15.54;79.98
70781;BME280;59514;48.810;2.134;2022-10-30T04:55:07;100281.78;;;15.45;80.82
70781;BME280;59514;48.810;2.134;2022-10-30T04:57:33;100282.53;;;15.41;80.84
70781;BME280;59514;48.810;2.134;2022-10-30T05:00:02;100284.19;;;15.42;81.32
70781;BME280;59514;48.810;2.134;2022-10-30T05:02:27;100292.31;;;15.47;80.65
70781;BME280;59514;48.810;2.134;2022-10-30T05:04:52;100289.25;;;15.38;81.28
70781;BME280;59514;48.810;2.134;2022-10-30T05:07:18;100284.13;;;15.37;81.86
70781;BME280;59514;48.810;2.134;2022-10-30T05:09:43;100285.00;;;15.42;81.19
70781;BME280;59514;48.810;2.134;2022-10-30T05:12:09;100286.63;;;15.43;81.33
70781;BME280;59514;48.810;2.134;2022-10-30T05:14:34;100287.72;;;15.42;81.25
70781;BME280;59514;48.810;2.134;2022-10-30T05:17:00;100281.22;;;15.43;81.42
70781;BME280;59514;48.810;2.134;2022-10-30T05:19:25;100286.44;;;15.55;80.98
70781;BME280;59514;48.810;2.134;2022-10-30T05:21:51;100281.47;;;15.42;80.97
70781;BME280;59514;48.810;2.134;2022-10-30T05:24:16;100269.78;;;15.41;81.40
70781;BME280;59514;48.810;2.134;2022-10-30T05:26:42;100270.38;;;15.43;80.92
70781;BME280;59514;48.810;2.134;2022-10-30T05:29:07;100272.91;;;15.55;80.83
70781;BME280;59514;48.810;2.134;2022-10-30T05:31:33;100275.59;;;15.50;80.34
70781;BME280;59514;48.810;2.134;2022-10-30T05:33:58;100277.13;;;15.41;80.97
70781;BME280;59514;48.810;2.134;2022-10-30T05:36:24;100278.78;;;15.42;81.35
70781;BME280;59514;48.810;2.134;2022-10-30T05:38:49;100273.38;;;15.47;79.97
70781;BME280;59514;48.810;2.134;2022-10-30T05:41:15;100272.41;;;15.58;79.67
70781;BME280;59514;48.810;2.134;2022-10-30T05:43:40;100276.16;;;15.52;80.02
70781;BME280;59514;48.810;2.134;2022-10-30T05:46:05;100264.47;;;15.46;80.96
70781;BME280;59514;48.810;2.134;2022-10-30T05:48:31;100276.00;;;15.37;79.66
70781;BME280;59514;48.810;2.134;2022-10-30T05:50:56;100269.41;;;15.23;80.21
70781;BME280;59514;48.810;2.134;2022-10-30T05:53:22;100273.69;;;15.19;80.70
70781;BME280;59514;48.810;2.134;2022-10-30T05:55:48;100274.56;;;15.29;80.45
70781;BME280;59514;48.810;2.134;2022-10-30T05:58:13;100268.88;;;15.26;80.62
70781;BME280;59514;48.810;2.134;2022-10-30T06:00:39;100267.75;;;15.22;80.84
70781;BME280;59514;48.810;2.134;2022-10-30T06:03:07;100268.28;;;15.19;80.72
70781;BME280;59514;48.810;2.134;2022-10-30T06:05:35;100265.34;;;15.25;81.22
70781;BME280;59514;48.810;2.134;2022-10-30T06:08:01;100261.31;;;15.28;80.61
70781;BME280;59514;48.810;2.134;2022-10-30T06:10:27;100261.56;;;15.26;81.08
70781;BME280;59514;48.810;2.134;2022-10-30T06:12:58;100262.41;;;15.32;80.98
70781;BME280;59514;48.810;2.134;2022-10-30T06:15:24;100278.16;;;15.35;80.38
70781;BME280;59514;48.810;2.134;2022-10-30T06:17:50;100278.16;;;15.35;79.84
70781;BME280;59514;48.810;2.134;2022-10-30T06:20:17;100281.81;;;15.24;80.81
70781;BME280;59514;48.810;2.134;2022-10-30T06:25:18;100277.97;;;15.15;80.49
70781;BME280;59514;48.810;2.134;2022-10-30T06:27:43;100277.16;;;15.14;81.35
70781;BME280;59514;48.810;2.134;2022-10-30T06:30:09;100282.84;;;15.18;81.28
70781;BME280;59514;48.810;2.134;2022-10-30T06:32:34;100278.06;;;15.25;80.53
70781;BME280;59514;48.810;2.134;2022-10-30T06:35:00;100277.19;;;15.19;80.65
70781;BME280;59514;48.810;2.134;2022-10-30T06:37:25;100277.97;;;15.15;81.25
70781;BME280;59514;48.810;2.134;2022-10-30T06:39:50;100285.00;;;15.16;81.02
70781;BME280;59514;48.810;2.134;2022-10-30T06:42:16;100291.50;;;15.15;80.98
70781;BME280;59514;48.810;2.134;2022-10-30T06:44:41;100291.03;;;15.23;80.93
70781;BME280;59514;48.810;2.134;2022-10-30T06:47:07;100294.28;;;15.25;80.43
70781;BME280;59514;48.810;2.134;2022-10-30T06:49:32;100288.63;;;15.26;81.29
70781;BME280;59514;48.810;2.134;2022-10-30T06:51:57;100280.53;;;15.31;80.45
70781;BME280;59514;48.810;2.134;2022-10-30T06:54:22;100282.94;;;15.28;81.67
70781;BME280;59514;48.810;2.134;2022-10-30T06:56:49;100285.44;;;15.34;81.08
70781;BME280;59514;48.810;2.134;2022-10-30T06:59:14;100282.84;;;15.44;81.05
70781;BME280;59514;48.810;2.134;2022-10-30T07:01:39;100288.03;;;15.51;80.32
70781;BME280;59514;48.810;2.134;2022-10-30T07:04:05;100284.81;;;15.54;80.21
70781;BME280;59514;48.810;2.134;2022-10-30T07:06:30;100288.63;;;15.58;80.04
70781;BME280;59514;48.810;2.134;2022-10-30T07:08:55;100301.63;;;15.56;79.62
70781;BME280;59514;48.810;2.134;2022-10-30T07:11:21;100310.22;;;15.48;80.00
70781;BME280;59514;48.810;2.134;2022-10-30T07:13:46;100298.56;;;15.47;80.12
70781;BME280;59514;48.810;2.134;2022-10-30T07:16:12;100286.69;;;15.53;79.98
70781;BME280;59514;48.810;2.134;2022-10-30T07:18:37;100285.16;;;15.63;79.57
70781;BME280;59514;48.810;2.134;2022-10-30T07:21:02;100283.31;;;15.68;80.05
70781;BME280;59514;48.810;2.134;2022-10-30T07:23:28;100277.66;;;15.75;79.94
70781;BME280;59514;48.810;2.134;2022-10-30T07:25:53;100269.78;;;15.73;79.68
70781;BME280;59514;48.810;2.134;2022-10-30T07:28:18;100271.44;;;15.74;79.76
70781;BME280;59514;48.810;2.134;2022-10-30T07:30:44;100277.66;;;15.75;78.44
70781;BME280;59514;48.810;2.134;2022-10-30T07:33:09;100270.88;;;15.72;78.75
70781;BME280;59514;48.810;2.134;2022-10-30T07:35:35;100269.72;;;15.63;78.59
70781;BME280;59514;48.810;2.134;2022-10-30T07:38:06;100267.56;;;15.65;79.26
70781;BME280;59514;48.810;2.134;2022-10-30T07:40:32;100269.78;;;15.73;79.50
70781;BME280;59514;48.810;2.134;2022-10-30T07:42:59;100273.66;;;15.82;79.07
70781;BME280;59514;48.810;2.134;2022-10-30T07:45:25;100282.06;;;15.86;78.52
70781;BME280;59514;48.810;2.134;2022-10-30T07:47:51;100280.69;;;15.83;78.79
70781;BME280;59514;48.810;2.134;2022-10-30T07:50:16;100279.88;;;15.83;78.84
70781;BME280;59514;48.810;2.134;2022-10-30T07:52:41;100281.72;;;15.77;79.11
70781;BME280;59514;48.810;2.134;2022-10-30T07:55:10;100291.78;;;15.82;78.89
70781;BME280;59514;48.810;2.134;2022-10-30T07:57:37;100296.13;;;15.83;78.10
70781;BME280;59514;48.810;2.134;2022-10-30T08:00:09;100301.22;;;15.79;78.41
70781;BME280;59514;48.810;2.134;2022-10-30T08:02:35;100317.25;;;15.86;78.52
70781;BME280;59514;48.810;2.134;2022-10-30T08:05:01;100326.19;;;15.86;78.23
70781;BME280;59514;48.810;2.134;2022-10-30T08:07:30;100321.06;;;15.85;78.23
70781;BME280;59514;48.810;2.134;2022-10-30T08:09:55;100335.44;;;15.90;78.16
70781;BME280;59514;48.810;2.134;2022-10-30T08:12:21;100340.56;;;15.87;78.01
70781;BME280;59514;48.810;2.134;2022-10-30T08:14:46;100349.47;;;15.87;78.70
70781;BME280;59514;48.810;2.134;2022-10-30T08:17:11;100342.84;;;15.68;78.58
70781;BME280;59514;48.810;2.134;2022-10-30T08:19:37;100329.03;;;15.65;79.06
70781;BME280;59514;48.810;2.134;2022-10-30T08:22:02;100354.50;;;15.69;78.38
70781;BME280;59514;48.810;2.134;2022-10-30T08:24:28;100357.53;;;15.77;79.02
70781;BME280;59514;48.810;2.134;2022-10-30T08:26:53;100372.72;;;15.83;78.92
70781;BME280;59514;48.810;2.134;2022-10-30T08:29:18;100358.41;;;15.83;78.04
70781;BME280;59514;48.810;2.134;2022-10-30T08:31:47;100360.88;;;15.89;78.12
70781;BME280;59514;48.810;2.134;2022-10-30T08:34:12;100360.28;;;15.82;77.74
70781;BME280;59514;48.810;2.134;2022-10-30T08:36:37;100371.13;;;15.82;78.73
70781;BME280;59514;48.810;2.134;2022-10-30T08:39:03;100368.91;;;15.79;77.78
70781;BME280;59514;48.810;2.134;2022-10-30T08:41:28;100371.63;;;15.79;78.55
70781;BME280;59514;48.810;2.134;2022-10-30T08:43:54;100366.81;;;15.86;78.57
70781;BME280;59514;48.810;2.134;2022-10-30T08:46:19;100351.06;;;15.83;78.36
70781;BME280;59514;48.810;2.134;2022-10-30T08:48:45;100354.88;;;15.82;78.01
70781;BME280;59514;48.810;2.134;2022-10-30T08:51:10;100359.25;;;15.88;78.70
70781;BME280;59514;48.810;2.134;2022-10-30T08:53:35;100349.56;;;15.97;77.99
70781;BME280;59514;48.810;2.134;2022-10-30T08:56:01;100357.19;;;16.00;77.58
70781;BME280;59514;48.810;2.134;2022-10-30T08:58:26;100344.69;;;15.99;77.29
70781;BME280;59514;48.810;2.134;2022-10-30T09:00:52;100348.22;;;16.00;76.69
70781;BME280;59514;48.810;2.134;2022-10-30T09:03:17;100361.00;;;16.04;76.08
70781;BME280;59514;48.810;2.134;2022-10-30T09:05:42;100371.28;;;16.07;75.27
70781;BME280;59514;48.810;2.134;2022-10-30T09:08:10;100371.63;;;16.16;75.01
70781;BME280;59514;48.810;2.134;2022-10-30T09:10:36;100376.81;;;16.22;74.82
70781;BME280;59514;48.810;2.134;2022-10-30T09:13:01;100387.13;;;16.25;74.20
70781;BME280;59514;48.810;2.134;2022-10-30T09:15:27;100374.97;;;16.28;74.67
70781;BME280;59514;48.810;2.134;2022-10-30T09:20:21;100389.34;;;16.33;73.91
70781;BME280;59514;48.810;2.134;2022-10-30T09:22:46;100398.84;;;16.36;73.57
70781;BME280;59514;48.810;2.134;2022-10-30T09:25:12;100393.44;;;16.36;73.38
70781;BME280;59514;48.810;2.134;2022-10-30T09:27:38;100396.34;;;16.24;74.12
70781;BME280;59514;48.810;2.134;2022-10-30T09:30:04;100389.63;;;16.37;74.55
70781;BME280;59514;48.810;2.134;2022-10-30T09:32:29;100392.94;;;16.44;74.33
70781;BME280;59514;48.810;2.134;2022-10-30T09:34:55;100381.22;;;16.38;74.67
70781;BME280;59514;48.810;2.134;2022-10-30T09:37:20;100381.31;;;16.49;73.26
70781;BME280;59514;48.810;2.134;2022-10-30T09:39:47;100380.72;;;16.47;73.00
70781;BME280;59514;48.810;2.134;2022-10-30T09:49:58;100390.09;;;16.66;71.97
70781;BME280;59514;48.810;2.134;2022-10-30T09:52:39;100384.69;;;16.71;71.75
70781;BME280;59514;48.810;2.134;2022-10-30T10:03:53;100394.97;;;16.69;72.78
70781;BME280;59514;48.810;2.134;2022-10-30T10:06:22;100394.41;;;16.62;73.04
70781;BME280;59514;48.810;2.134;2022-10-30T10:08:53;100402.06;;;16.75;72.68
70781;BME280;59514;48.810;2.134;2022-10-30T10:11:34;100392.03;;;16.75;72.85
70781;BME280;59514;48.810;2.134;2022-10-30T10:14:05;100387.44;;;16.81;72.67
70781;BME280;59514;48.810;2.134;2022-10-30T10:16:35;100380.94;;;16.82;72.93
70781;BME280;59514;48.810;2.134;2022-10-30T10:19:41;100375.56;;;16.92;71.96
70781;BME280;59514;48.810;2.134;2022-10-30T10:25:05;100386.41;;;16.97;71.94
70781;BME280;59514;48.810;2.134;2022-10-30T10:28:02;100404.31;;;16.93;72.21
70781;BME280;59514;48.810;2.134;2022-10-30T10:30:48;100411.09;;;17.00;72.44
70781;BME280;59514;48.810;2.134;2022-10-30T10:39:28;100438.19;;;16.85;73.12
70781;BME280;59514;48.810;2.134;2022-10-30T10:42:01;100425.13;;;16.72;74.29
70781;BME280;59514;48.810;2.134;2022-10-30T10:45:19;100436.03;;;16.92;73.58
70781;BME280;59514;48.810;2.134;2022-10-30T10:47:37;100441.22;;;16.94;73.96
70781;BME280;59514;48.810;2.134;2022-10-30T10:53:24;100445.16;;;16.66;75.37
70781;BME280;59514;48.810;2.134;2022-10-30T10:55:53;100445.50;;;16.85;75.03
70781;BME280;59514;48.810;2.134;2022-10-30T10:58:26;100449.75;;;16.71;75.76
70781;BME280;59514;48.810;2.134;2022-10-30T11:00:55;100451.13;;;16.73;75.57
70781;BME280;59514;48.810;2.134;2022-10-30T11:03:41;100468.66;;;16.56;75.88
70781;BME280;59514;48.810;2.134;2022-10-30T11:06:17;100480.00;;;16.53;76.59
70781;BME280;59514;48.810;2.134;2022-10-30T11:08:44;100473.94;;;16.40;77.60
70781;BME280;59514;48.810;2.134;2022-10-30T11:11:09;100456.47;;;16.58;77.54
70781;BME280;59514;48.810;2.134;2022-10-30T11:13:36;100457.88;;;16.66;77.43
70781;BME280;59514;48.810;2.134;2022-10-30T11:16:23;100463.22;;;16.56;78.07
70781;BME280;59514;48.810;2.134;2022-10-30T11:18:54;100451.13;;;16.68;77.99
70781;BME280;59514;48.810;2.134;2022-10-30T11:21:24;100461.16;;;16.73;77.77
70781;BME280;59514;48.810;2.134;2022-10-30T11:23:50;100460.03;;;16.64;78.46
70781;BME280;59514;48.810;2.134;2022-10-30T11:28:51;100476.09;;;16.75;78.29
70781;BME280;59514;48.810;2.134;2022-10-30T11:33:48;100483.00;;;16.98;77.66
70781;BME280;59514;48.810;2.134;2022-10-30T11:36:17;100465.66;;;17.04;77.35
70781;BME280;59514;48.810;2.134;2022-10-30T11:38:43;100468.13;;;17.10;77.43
70781;BME280;59514;48.810;2.134;2022-10-30T11:41:08;100470.03;;;17.10;77.20
70781;BME280;59514;48.810;2.134;2022-10-30T11:43:39;100496.63;;;17.18;76.70
70781;BME280;59514;48.810;2.134;2022-10-30T11:46:07;100514.56;;;17.14;77.18
70781;BME280;59514;48.810;2.134;2022-10-30T11:48:38;100533.56;;;17.24;77.10
70781;BME280;59514;48.810;2.134;2022-10-30T11:51:06;100533.84;;;17.22;76.93
70781;BME280;59514;48.810;2.134;2022-10-30T11:53:37;100516.72;;;17.12;76.89
70781;BME280;59514;48.810;2.134;2022-10-30T11:56:15;100529.78;;;17.30;76.98
70781;BME280;59514;48.810;2.134;2022-10-30T11:58:46;100535.78;;;17.27;76.37
70781;BME280;59514;48.810;2.134;2022-10-30T12:01:22;100535.22;;;17.30;76.22
70781;BME280;59514;48.810;2.134;2022-10-30T12:03:48;100543.84;;;17.12;76.45
70781;BME280;59514;48.810;2.134;2022-10-30T12:09:21;100555.94;;;17.46;75.63
70781;BME280;59514;48.810;2.134;2022-10-30T12:11:46;100547.19;;;17.34;74.44
70781;BME280;59514;48.810;2.134;2022-10-30T12:16:44;100539.97;;;17.55;73.89
70781;BME280;59514;48.810;2.134;2022-10-30T12:19:11;100546.41;;;17.39;73.70
70781;BME280;59514;48.810;2.134;2022-10-30T12:21:43;100541.34;;;17.57;73.41
70781;BME280;59514;48.810;2.134;2022-10-30T12:24:38;100525.66;;;17.12;74.43
70781;BME280;59514;48.810;2.134;2022-10-30T12:27:09;100540.59;;;17.10;74.83
70781;BME280;59514;48.810;2.134;2022-10-30T12:32:22;100538.94;;;17.09;75.57
70781;BME280;59514;48.810;2.134;2022-10-30T12:34:56;100542.19;;;17.11;75.05
70781;BME280;59514;48.810;2.134;2022-10-30T12:37:36;100539.22;;;17.12;75.21
70781;BME280;59514;48.810;2.134;2022-10-30T12:42:30;100549.94;;;16.87;76.79
70781;BME280;59514;48.810;2.134;2022-10-30T12:45:18;100541.84;;;16.97;76.54
70781;BME280;59514;48.810;2.134;2022-10-30T12:47:54;100556.88;;;17.15;76.13
70781;BME280;59514;48.810;2.134;2022-10-30T12:50:25;100550.06;;;17.12;75.91
70781;BME280;59514;48.810;2.134;2022-10-30T12:55:36;100545.13;;;16.99;75.12
70781;BME280;59514;48.810;2.134;2022-10-30T12:58:27;100549.22;;;17.02;74.39
70781;BME280;59514;48.810;2.134;2022-10-30T13:01:00;100548.09;;;16.98;74.71
70781;BME280;59514;48.810;2.134;2022-10-30T13:03:33;100552.41;;;16.94;75.34
70781;BME280;59514;48.810;2.134;2022-10-30T13:06:08;100546.22;;;17.03;75.07
70781;BME280;59514;48.810;2.134;2022-10-30T13:08:43;100542.69;;;16.98;75.34
70781;BME280;59514;48.810;2.134;2022-10-30T13:11:20;100543.84;;;17.12;75.01
70781;BME280;59514;48.810;2.134;2022-10-30T13:13:53;100532.41;;;17.05;74.65
70781;BME280;59514;48.810;2.134;2022-10-30T13:16:30;100523.25;;;17.16;75.02
70781;BME280;59514;48.810;2.134;2022-10-30T13:18:58;100530.63;;;17.26;75.21
70781;BME280;59514;48.810;2.134;2022-10-30T13:21:36;100514.56;;;17.19;73.41
70781;BME280;59514;48.810;2.134;2022-10-30T13:26:51;100521.69;;;17.40;73.62
70781;BME280;59514;48.810;2.134;2022-10-30T13:29:28;100522.63;;;17.56;73.53
70781;BME280;59514;48.810;2.134;2022-10-30T13:32:31;100521.84;;;17.65;73.27
70781;BME280;59514;48.810;2.134;2022-10-30T13:35:12;100533.22;;;17.62;72.55
70781;BME280;59514;48.810;2.134;2022-10-30T13:40:35;100515.28;;;17.56;72.98
70781;BME280;59514;48.810;2.134;2022-10-30T13:49:00;100519.13;;;17.65;72.63
70781;BME280;59514;48.810;2.134;2022-10-30T13:54:25;100513.13;;;17.63;71.94
70781;BME280;59514;48.810;2.134;2022-10-30T13:56:54;100524.53;;;17.70;71.89
70781;BME280;59514;48.810;2.134;2022-10-30T13:59:46;100524.31;;;17.77;71.36
70781;BME280;59514;48.810;2.134;2022-10-30T14:08:17;100525.66;;;17.79;71.17
70781;BME280;59514;48.810;2.134;2022-10-30T14:10:51;100531.34;;;17.78;69.91
70781;BME280;59514;48.810;2.134;2022-10-30T14:13:25;100533.50;;;17.76;70.62
70781;BME280;59514;48.810;2.134;2022-10-30T14:15:59;100534.06;;;17.78;70.67
70781;BME280;59514;48.810;2.134;2022-10-30T14:18:45;100541.13;;;17.84;70.10
70781;BME280;59514;48.810;2.134;2022-10-30T14:21:58;100543.06;;;17.88;70.40
70781;BME280;59514;48.810;2.134;2022-10-30T14:32:01;100526.53;;;18.75;67.26
70781;BME280;59514;48.810;2.134;2022-10-30T14:37:15;100525.66;;;19.00;66.22